sensor_id;sensor_type;location;lat;lon;timestamp;P1;durP1;ratioP1;P2;durP2;ratioP2
67597;SDS011;62026;39.230;9.122;2022-11-20T00:01:26;20.23;;;8.48;;
67597;SDS011;62026;39.230;9.122;2022-11-20T00:03:53;18.70;;;8.20;;
67597;SDS011;62026;39.230;9.122;2022-11-20T00:06:22;19.33;;;8.43;;
67597;SDS011;62026;39.230;9.122;2022-11-20T00:08:50;21.17;;;7.68;;
67597;SDS011;62026;39.230;9.122;2022-11-20T00:11:20;17.90;;;7.35;;
67597;SDS011;62026;39.230;9.122;2022-11-20T00:13:49;22.50;;;7.85;;
67597;SDS011;62026;39.230;9.122;2022-11-20T00:16:19;17.75;;;6.72;;
67597;SDS011;62026;39.230;9.122;2022-11-20T00:18:49;20.23;;;6.53;;
67597;SDS011;62026;39.230;9.122;2022-11-20T00:21:17;14.30;;;5.90;;
67597;SDS011;62026;39.230;9.122;2022-11-20T00:23:49;15.63;;;5.20;;
67597;SDS011;62026;39.230;9.122;2022-11-20T00:26:19;18.30;;;6.07;;
67597;SDS011;62026;39.230;9.122;2022-11-20T00:28:53;16.00;;;4.70;;
67597;SDS011;62026;39.230;9.122;2022-11-20T00:31:22;20.25;;;3.85;;
67597;SDS011;62026;39.230;9.122;2022-11-20T00:33:49;9.13;;;2.97;;
67597;SDS011;62026;39.230;9.122;2022-11-20T00:36:16;18.17;;;3.20;;
67597;SDS011;62026;39.230;9.122;2022-11-20T00:38:44;14.40;;;3.42;;
67597;SDS011;62026;39.230;9.122;2022-11-20T00:41:12;13.57;;;2.92;;
67597;SDS011;62026;39.230;9.122;2022-11-20T00:43:40;14.65;;;2.85;;
67597;SDS011;62026;39.230;9.122;2022-11-20T00:46:08;15.85;;;2.53;;
67597;SDS011;62026;39.230;9.122;2022-11-20T00:48:40;12.05;;;2.30;;
67597;SDS011;62026;39.230;9.122;2022-11-20T00:51:06;12.40;;;2.20;;
67597;SDS011;62026;39.230;9.122;2022-11-20T00:53:33;10.27;;;2.30;;
67597;SDS011;62026;39.230;9.122;2022-11-20T00:56:00;8.73;;;2.20;;
67597;SDS011;62026;39.230;9.122;2022-11-20T00:58:35;9.20;;;2.30;;
67597;SDS011;62026;39.230;9.122;2022-11-20T01:01:04;7.07;;;1.95;;
67597;SDS011;62026;39.230;9.122;2022-11-20T01:03:32;9.88;;;2.63;;
67597;SDS011;62026;39.230;9.122;2022-11-20T01:06:05;8.82;;;2.45;;
67597;SDS011;62026;39.230;9.122;2022-11-20T01:08:36;12.50;;;2.20;;
67597;SDS011;62026;39.230;9.122;2022-11-20T01:11:04;11.68;;;2.25;;
67597;SDS011;62026;39.230;9.122;2022-11-20T01:13:36;9.48;;;1.95;;
67597;SDS011;62026;39.230;9.122;2022-11-20T01:16:05;11.80;;;1.98;;
67597;SDS011;62026;39.230;9.122;2022-11-20T01:18:32;6.85;;;1.77;;
67597;SDS011;62026;39.230;9.122;2022-11-20T01:21:03;9.82;;;2.22;;
67597;SDS011;62026;39.230;9.122;2022-11-20T01:23:33;4.38;;;1.27;;
67597;SDS011;62026;39.230;9.122;2022-11-20T01:26:02;7.25;;;1.50;;
67597;SDS011;62026;39.230;9.122;2022-11-20T01:28:31;8.07;;;2.20;;
67597;SDS011;62026;39.230;9.122;2022-11-20T01:30:58;6.20;;;1.67;;
67597;SDS011;62026;39.230;9.122;2022-11-20T01:33:24;5.07;;;1.55;;
67597;SDS011;62026;39.230;9.122;2022-11-20T01:35:51;8.45;;;1.88;;
67597;SDS011;62026;39.230;9.122;2022-11-20T01:38:18;5.15;;;1.48;;
67597;SDS011;62026;39.230;9.122;2022-11-20T01:40:54;4.78;;;1.52;;
67597;SDS011;62026;39.230;9.122;2022-11-20T01:43:20;5.97;;;1.60;;
67597;SDS011;62026;39.230;9.122;2022-11-20T01:51:15;6.95;;;1.38;;
67597;SDS011;62026;39.230;9.122;2022-11-20T01:54:25;3.92;;;1.30;;
67597;SDS011;62026;39.230;9.122;2022-11-20T01:57:02;6.53;;;1.15;;
67597;SDS011;62026;39.230;9.122;2022-11-20T01:59:34;4.28;;;0.98;;
67597;SDS011;62026;39.230;9.122;2022-11-20T02:04:33;5.22;;;0.98;;
67597;SDS011;62026;39.230;9.122;2022-11-20T02:06:59;3.85;;;1.13;;
67597;SDS011;62026;39.230;9.122;2022-11-20T02:09:27;5.60;;;0.98;;
67597;SDS011;62026;39.230;9.122;2022-11-20T02:11:54;4.70;;;1.17;;
67597;SDS011;62026;39.230;9.122;2022-11-20T02:14:21;3.58;;;1.33;;
67597;SDS011;62026;39.230;9.122;2022-11-20T02:16:48;6.53;;;0.85;;
67597;SDS011;62026;39.230;9.122;2022-11-20T02:19:19;3.90;;;1.17;;
67597;SDS011;62026;39.230;9.122;2022-11-20T02:22:05;4.13;;;0.90;;
67597;SDS011;62026;39.230;9.122;2022-11-20T02:24:43;5.70;;;1.20;;
67597;SDS011;62026;39.230;9.122;2022-11-20T02:27:14;5.30;;;0.90;;
67597;SDS011;62026;39.230;9.122;2022-11-20T02:29:44;6.10;;;1.10;;
67597;SDS011;62026;39.230;9.122;2022-11-20T02:32:29;4.07;;;1.15;;
67597;SDS011;62026;39.230;9.122;2022-11-20T02:35:45;4.15;;;1.02;;
67597;SDS011;62026;39.230;9.122;2022-11-20T02:37:49;7.40;;;1.23;;
67597;SDS011;62026;39.230;9.122;2022-11-20T02:40:20;5.13;;;1.08;;
67597;SDS011;62026;39.230;9.122;2022-11-20T02:42:46;2.50;;;0.90;;
67597;SDS011;62026;39.230;9.122;2022-11-20T02:45:16;6.57;;;1.42;;
67597;SDS011;62026;39.230;9.122;2022-11-20T02:47:42;6.45;;;1.40;;
67597;SDS011;62026;39.230;9.122;2022-11-20T02:50:08;4.90;;;1.10;;
67597;SDS011;62026;39.230;9.122;2022-11-20T02:52:34;5.38;;;1.50;;
67597;SDS011;62026;39.230;9.122;2022-11-20T02:55:00;8.05;;;1.45;;
67597;SDS011;62026;39.230;9.122;2022-11-20T02:57:26;4.53;;;1.10;;
67597;SDS011;62026;39.230;9.122;2022-11-20T02:59:53;5.43;;;1.40;;
67597;SDS011;62026;39.230;9.122;2022-11-20T03:02:19;6.25;;;1.20;;
67597;SDS011;62026;39.230;9.122;2022-11-20T03:04:45;6.05;;;1.38;;
67597;SDS011;62026;39.230;9.122;2022-11-20T03:07:11;5.88;;;1.30;;
67597;SDS011;62026;39.230;9.122;2022-11-20T03:09:37;6.07;;;1.50;;
67597;SDS011;62026;39.230;9.122;2022-11-20T03:12:04;7.55;;;1.55;;
67597;SDS011;62026;39.230;9.122;2022-11-20T03:14:30;4.80;;;1.27;;
67597;SDS011;62026;39.230;9.122;2022-11-20T03:16:56;7.35;;;1.40;;
67597;SDS011;62026;39.230;9.122;2022-11-20T03:19:23;7.15;;;1.40;;
67597;SDS011;62026;39.230;9.122;2022-11-20T03:21:49;7.38;;;1.65;;
67597;SDS011;62026;39.230;9.122;2022-11-20T03:24:15;7.90;;;1.85;;
67597;SDS011;62026;39.230;9.122;2022-11-20T03:26:41;6.38;;;1.13;;
67597;SDS011;62026;39.230;9.122;2022-11-20T03:29:07;9.88;;;1.45;;
67597;SDS011;62026;39.230;9.122;2022-11-20T03:31:35;4.78;;;1.00;;
67597;SDS011;62026;39.230;9.122;2022-11-20T03:34:05;7.10;;;1.48;;
67597;SDS011;62026;39.230;9.122;2022-11-20T03:36:34;8.18;;;1.35;;
67597;SDS011;62026;39.230;9.122;2022-11-20T03:39:03;8.48;;;1.95;;
67597;SDS011;62026;39.230;9.122;2022-11-20T03:41:30;8.82;;;1.73;;
67597;SDS011;62026;39.230;9.122;2022-11-20T03:44:02;10.20;;;1.10;;
67597;SDS011;62026;39.230;9.122;2022-11-20T03:46:30;6.03;;;1.20;;
67597;SDS011;62026;39.230;9.122;2022-11-20T03:48:57;5.40;;;1.10;;
67597;SDS011;62026;39.230;9.122;2022-11-20T03:51:30;5.78;;;1.00;;
67597;SDS011;62026;39.230;9.122;2022-11-20T03:53:59;4.70;;;1.17;;
67597;SDS011;62026;39.230;9.122;2022-11-20T03:56:30;9.55;;;1.65;;
67597;SDS011;62026;39.230;9.122;2022-11-20T03:58:58;5.38;;;1.13;;
67597;SDS011;62026;39.230;9.122;2022-11-20T04:01:26;7.30;;;1.40;;
67597;SDS011;62026;39.230;9.122;2022-11-20T04:03:56;12.35;;;1.75;;
67597;SDS011;62026;39.230;9.122;2022-11-20T04:06:24;8.70;;;1.63;;
67597;SDS011;62026;39.230;9.122;2022-11-20T04:08:54;5.60;;;1.35;;
67597;SDS011;62026;39.230;9.122;2022-11-20T04:11:26;5.97;;;1.40;;
67597;SDS011;62026;39.230;9.122;2022-11-20T04:13:58;5.10;;;1.25;;
67597;SDS011;62026;39.230;9.122;2022-11-20T04:16:29;12.52;;;1.73;;
67597;SDS011;62026;39.230;9.122;2022-11-20T04:18:58;10.02;;;1.42;;
67597;SDS011;62026;39.230;9.122;2022-11-20T04:21:26;8.02;;;1.30;;
67597;SDS011;62026;39.230;9.122;2022-11-20T04:23:53;7.13;;;1.45;;
67597;SDS011;62026;39.230;9.122;2022-11-20T04:26:22;8.80;;;1.30;;
67597;SDS011;62026;39.230;9.122;2022-11-20T04:28:50;6.82;;;1.50;;
67597;SDS011;62026;39.230;9.122;2022-11-20T04:31:18;3.92;;;1.15;;
67597;SDS011;62026;39.230;9.122;2022-11-20T04:33:47;5.22;;;1.30;;
67597;SDS011;62026;39.230;9.122;2022-11-20T04:36:14;4.78;;;1.08;;
67597;SDS011;62026;39.230;9.122;2022-11-20T04:38:53;6.05;;;1.10;;
67597;SDS011;62026;39.230;9.122;2022-11-20T04:41:21;5.80;;;1.30;;
67597;SDS011;62026;39.230;9.122;2022-11-20T04:43:52;4.45;;;1.65;;
67597;SDS011;62026;39.230;9.122;2022-11-20T04:46:25;9.15;;;1.80;;
67597;SDS011;62026;39.230;9.122;2022-11-20T04:48:52;6.97;;;1.50;;
67597;SDS011;62026;39.230;9.122;2022-11-20T04:51:43;7.28;;;1.20;;
67597;SDS011;62026;39.230;9.122;2022-11-20T04:54:10;5.95;;;1.23;;
67597;SDS011;62026;39.230;9.122;2022-11-20T04:56:37;7.30;;;1.30;;
67597;SDS011;62026;39.230;9.122;2022-11-20T04:59:03;6.35;;;1.15;;
67597;SDS011;62026;39.230;9.122;2022-11-20T05:01:29;9.00;;;1.50;;
67597;SDS011;62026;39.230;9.122;2022-11-20T05:03:55;7.15;;;1.40;;
67597;SDS011;62026;39.230;9.122;2022-11-20T05:06:21;6.38;;;1.42;;
67597;SDS011;62026;39.230;9.122;2022-11-20T05:08:47;6.05;;;1.40;;
67597;SDS011;62026;39.230;9.122;2022-11-20T05:11:15;7.10;;;1.80;;
67597;SDS011;62026;39.230;9.122;2022-11-20T05:13:44;5.55;;;1.30;;
67597;SDS011;62026;39.230;9.122;2022-11-20T05:16:12;9.52;;;1.98;;
67597;SDS011;62026;39.230;9.122;2022-11-20T05:18:41;5.50;;;1.40;;
67597;SDS011;62026;39.230;9.122;2022-11-20T05:21:08;7.22;;;1.25;;
67597;SDS011;62026;39.230;9.122;2022-11-20T05:23:36;7.10;;;1.67;;
67597;SDS011;62026;39.230;9.122;2022-11-20T05:26:03;6.97;;;1.45;;
67597;SDS011;62026;39.230;9.122;2022-11-20T05:28:31;6.13;;;1.27;;
67597;SDS011;62026;39.230;9.122;2022-11-20T05:31:08;6.45;;;1.40;;
67597;SDS011;62026;39.230;9.122;2022-11-20T05:33:41;8.98;;;1.25;;
67597;SDS011;62026;39.230;9.122;2022-11-20T05:36:09;7.60;;;1.30;;
67597;SDS011;62026;39.230;9.122;2022-11-20T05:38:37;4.65;;;1.08;;
67597;SDS011;62026;39.230;9.122;2022-11-20T05:43:38;9.82;;;1.63;;
67597;SDS011;62026;39.230;9.122;2022-11-20T05:46:06;10.02;;;1.73;;
67597;SDS011;62026;39.230;9.122;2022-11-20T05:48:35;11.82;;;1.70;;
67597;SDS011;62026;39.230;9.122;2022-11-20T05:51:02;5.97;;;1.20;;
67597;SDS011;62026;39.230;9.122;2022-11-20T05:53:32;6.25;;;1.30;;
67597;SDS011;62026;39.230;9.122;2022-11-20T05:56:06;7.95;;;1.48;;
67597;SDS011;62026;39.230;9.122;2022-11-20T05:58:36;6.88;;;1.30;;
67597;SDS011;62026;39.230;9.122;2022-11-20T06:01:04;9.93;;;1.50;;
67597;SDS011;62026;39.230;9.122;2022-11-20T06:03:37;6.22;;;1.63;;
67597;SDS011;62026;39.230;9.122;2022-11-20T06:06:04;8.45;;;1.70;;
67597;SDS011;62026;39.230;9.122;2022-11-20T06:08:31;7.75;;;1.63;;
67597;SDS011;62026;39.230;9.122;2022-11-20T06:10:57;6.28;;;1.48;;
67597;SDS011;62026;39.230;9.122;2022-11-20T06:13:27;6.10;;;1.38;;
67597;SDS011;62026;39.230;9.122;2022-11-20T06:15:53;7.72;;;1.60;;
67597;SDS011;62026;39.230;9.122;2022-11-20T06:18:19;10.23;;;1.67;;
67597;SDS011;62026;39.230;9.122;2022-11-20T06:20:45;5.25;;;1.58;;
67597;SDS011;62026;39.230;9.122;2022-11-20T06:23:12;9.80;;;1.60;;
67597;SDS011;62026;39.230;9.122;2022-11-20T06:25:42;11.32;;;1.67;;
67597;SDS011;62026;39.230;9.122;2022-11-20T06:28:08;4.63;;;1.27;;
67597;SDS011;62026;39.230;9.122;2022-11-20T06:30:35;8.57;;;1.38;;
67597;SDS011;62026;39.230;9.122;2022-11-20T06:33:02;9.05;;;1.63;;
67597;SDS011;62026;39.230;9.122;2022-11-20T06:35:28;9.13;;;2.13;;
67597;SDS011;62026;39.230;9.122;2022-11-20T06:37:54;4.90;;;1.33;;
67597;SDS011;62026;39.230;9.122;2022-11-20T06:40:21;11.02;;;1.58;;
67597;SDS011;62026;39.230;9.122;2022-11-20T06:42:47;7.25;;;1.63;;
67597;SDS011;62026;39.230;9.122;2022-11-20T06:45:13;7.30;;;1.38;;
67597;SDS011;62026;39.230;9.122;2022-11-20T06:47:39;5.68;;;1.30;;
67597;SDS011;62026;39.230;9.122;2022-11-20T06:50:05;11.82;;;1.63;;
67597;SDS011;62026;39.230;9.122;2022-11-20T06:52:32;6.15;;;1.23;;
67597;SDS011;62026;39.230;9.122;2022-11-20T06:54:58;7.50;;;1.60;;
67597;SDS011;62026;39.230;9.122;2022-11-20T06:57:24;7.40;;;1.30;;
67597;SDS011;62026;39.230;9.122;2022-11-20T06:59:50;13.30;;;2.00;;
67597;SDS011;62026;39.230;9.122;2022-11-20T07:02:16;10.40;;;1.73;;
67597;SDS011;62026;39.230;9.122;2022-11-20T07:04:42;7.57;;;1.30;;
67597;SDS011;62026;39.230;9.122;2022-11-20T07:07:08;13.23;;;1.80;;
67597;SDS011;62026;39.230;9.122;2022-11-20T07:09:34;5.05;;;1.23;;
67597;SDS011;62026;39.230;9.122;2022-11-20T07:12:00;6.78;;;1.23;;
67597;SDS011;62026;39.230;9.122;2022-11-20T07:14:26;7.32;;;1.48;;
67597;SDS011;62026;39.230;9.122;2022-11-20T07:16:52;12.93;;;1.67;;
67597;SDS011;62026;39.230;9.122;2022-11-20T07:19:18;6.35;;;1.30;;
67597;SDS011;62026;39.230;9.122;2022-11-20T07:21:44;5.80;;;1.40;;
67597;SDS011;62026;39.230;9.122;2022-11-20T07:24:10;10.65;;;1.75;;
67597;SDS011;62026;39.230;9.122;2022-11-20T07:26:35;7.00;;;1.50;;
67597;SDS011;62026;39.230;9.122;2022-11-20T07:29:01;10.82;;;1.92;;
67597;SDS011;62026;39.230;9.122;2022-11-20T07:31:28;10.50;;;1.90;;
67597;SDS011;62026;39.230;9.122;2022-11-20T07:33:54;7.13;;;1.52;;
67597;SDS011;62026;39.230;9.122;2022-11-20T07:36:20;5.50;;;1.58;;
67597;SDS011;62026;39.230;9.122;2022-11-20T07:38:46;5.95;;;1.88;;
67597;SDS011;62026;39.230;9.122;2022-11-20T07:41:12;7.15;;;1.45;;
67597;SDS011;62026;39.230;9.122;2022-11-20T07:43:38;8.73;;;1.63;;
67597;SDS011;62026;39.230;9.122;2022-11-20T07:46:04;10.65;;;1.58;;
67597;SDS011;62026;39.230;9.122;2022-11-20T07:48:30;12.57;;;1.60;;
67597;SDS011;62026;39.230;9.122;2022-11-20T07:50:56;9.27;;;1.77;;
67597;SDS011;62026;39.230;9.122;2022-11-20T07:53:22;8.48;;;1.80;;
67597;SDS011;62026;39.230;9.122;2022-11-20T07:55:49;14.38;;;2.00;;
67597;SDS011;62026;39.230;9.122;2022-11-20T07:58:18;8.55;;;1.88;;
67597;SDS011;62026;39.230;9.122;2022-11-20T08:00:45;8.80;;;2.25;;
67597;SDS011;62026;39.230;9.122;2022-11-20T08:03:11;7.72;;;1.88;;
67597;SDS011;62026;39.230;9.122;2022-11-20T08:05:38;9.45;;;2.03;;
67597;SDS011;62026;39.230;9.122;2022-11-20T08:08:04;10.50;;;2.45;;
67597;SDS011;62026;39.230;9.122;2022-11-20T08:10:31;9.80;;;2.03;;
67597;SDS011;62026;39.230;9.122;2022-11-20T08:12:57;5.70;;;1.55;;
67597;SDS011;62026;39.230;9.122;2022-11-20T08:15:47;15.45;;;1.80;;
67597;SDS011;62026;39.230;9.122;2022-11-20T08:18:16;12.73;;;1.98;;
67597;SDS011;62026;39.230;9.122;2022-11-20T08:20:43;10.80;;;1.77;;
67597;SDS011;62026;39.230;9.122;2022-11-20T08:23:09;14.38;;;2.05;;
67597;SDS011;62026;39.230;9.122;2022-11-20T08:25:36;9.60;;;2.10;;
67597;SDS011;62026;39.230;9.122;2022-11-20T08:28:04;10.18;;;1.63;;
67597;SDS011;62026;39.230;9.122;2022-11-20T08:30:35;9.15;;;1.90;;
67597;SDS011;62026;39.230;9.122;2022-11-20T08:33:03;12.93;;;2.50;;
67597;SDS011;62026;39.230;9.122;2022-11-20T08:35:34;13.50;;;1.83;;
67597;SDS011;62026;39.230;9.122;2022-11-20T08:38:03;11.73;;;1.80;;
67597;SDS011;62026;39.230;9.122;2022-11-20T08:40:30;18.38;;;2.85;;
67597;SDS011;62026;39.230;9.122;2022-11-20T08:42:57;13.95;;;2.03;;
67597;SDS011;62026;39.230;9.122;2022-11-20T08:45:23;8.70;;;2.25;;
67597;SDS011;62026;39.230;9.122;2022-11-20T08:47:49;15.02;;;2.58;;
67597;SDS011;62026;39.230;9.122;2022-11-20T08:50:15;14.48;;;2.55;;
67597;SDS011;62026;39.230;9.122;2022-11-20T08:52:43;10.90;;;2.72;;
67597;SDS011;62026;39.230;9.122;2022-11-20T08:55:09;11.63;;;2.97;;
67597;SDS011;62026;39.230;9.122;2022-11-20T08:57:35;16.20;;;2.47;;
67597;SDS011;62026;39.230;9.122;2022-11-20T09:00:03;8.82;;;2.10;;
67597;SDS011;62026;39.230;9.122;2022-11-20T09:02:32;12.45;;;2.50;;
67597;SDS011;62026;39.230;9.122;2022-11-20T09:04:59;8.35;;;2.00;;
67597;SDS011;62026;39.230;9.122;2022-11-20T09:07:27;17.60;;;2.30;;
67597;SDS011;62026;39.230;9.122;2022-11-20T09:09:55;13.27;;;2.72;;
67597;SDS011;62026;39.230;9.122;2022-11-20T09:12:21;19.27;;;2.38;;
67597;SDS011;62026;39.230;9.122;2022-11-20T09:14:47;8.63;;;2.63;;
67597;SDS011;62026;39.230;9.122;2022-11-20T09:17:13;12.52;;;2.25;;
67597;SDS011;62026;39.230;9.122;2022-11-20T09:19:40;4.78;;;1.80;;
67597;SDS011;62026;39.230;9.122;2022-11-20T09:22:06;12.63;;;2.10;;
67597;SDS011;62026;39.230;9.122;2022-11-20T09:24:32;10.57;;;2.30;;
67597;SDS011;62026;39.230;9.122;2022-11-20T09:27:00;12.13;;;2.28;;
67597;SDS011;62026;39.230;9.122;2022-11-20T09:29:28;11.63;;;2.00;;
67597;SDS011;62026;39.230;9.122;2022-11-20T09:31:54;8.35;;;1.77;;
67597;SDS011;62026;39.230;9.122;2022-11-20T09:34:20;9.55;;;1.90;;
67597;SDS011;62026;39.230;9.122;2022-11-20T09:36:46;11.45;;;2.10;;
67597;SDS011;62026;39.230;9.122;2022-11-20T09:39:12;9.27;;;1.70;;
67597;SDS011;62026;39.230;9.122;2022-11-20T09:47:53;12.45;;;1.90;;
67597;SDS011;62026;39.230;9.122;2022-11-20T09:50:36;11.93;;;2.35;;
67597;SDS011;62026;39.230;9.122;2022-11-20T09:56:39;11.45;;;1.88;;
67597;SDS011;62026;39.230;9.122;2022-11-20T09:59:14;5.95;;;1.55;;
67597;SDS011;62026;39.230;9.122;2022-11-20T10:01:47;10.32;;;1.83;;
67597;SDS011;62026;39.230;9.122;2022-11-20T10:09:52;11.20;;;1.67;;
67597;SDS011;62026;39.230;9.122;2022-11-20T10:21:18;9.32;;;1.50;;
67597;SDS011;62026;39.230;9.122;2022-11-20T10:29:32;9.75;;;1.67;;
67597;SDS011;62026;39.230;9.122;2022-11-20T10:32:02;8.85;;;1.63;;
67597;SDS011;62026;39.230;9.122;2022-11-20T10:37:35;9.30;;;1.50;;
67597;SDS011;62026;39.230;9.122;2022-11-20T10:43:04;10.68;;;2.08;;
67597;SDS011;62026;39.230;9.122;2022-11-20T10:48:28;10.90;;;1.50;;
67597;SDS011;62026;39.230;9.122;2022-11-20T11:01:59;7.30;;;1.63;;
67597;SDS011;62026;39.230;9.122;2022-11-20T11:10:05;8.75;;;2.00;;
67597;SDS011;62026;39.230;9.122;2022-11-20T11:13:07;3.90;;;1.20;;
67597;SDS011;62026;39.230;9.122;2022-11-20T11:15:54;12.48;;;1.95;;
67597;SDS011;62026;39.230;9.122;2022-11-20T11:20:59;11.73;;;2.00;;
67597;SDS011;62026;39.230;9.122;2022-11-20T11:23:39;8.88;;;1.40;;
67597;SDS011;62026;39.230;9.122;2022-11-20T11:26:28;7.00;;;1.55;;
67597;SDS011;62026;39.230;9.122;2022-11-20T11:29:00;13.48;;;1.80;;
67597;SDS011;62026;39.230;9.122;2022-11-20T11:31:31;5.88;;;1.55;;
67597;SDS011;62026;39.230;9.122;2022-11-20T11:34:07;6.53;;;1.23;;
67597;SDS011;62026;39.230;9.122;2022-11-20T11:36:41;10.32;;;1.70;;
67597;SDS011;62026;39.230;9.122;2022-11-20T11:39:19;14.07;;;1.80;;
67597;SDS011;62026;39.230;9.122;2022-11-20T11:41:46;9.38;;;1.55;;
67597;SDS011;62026;39.230;9.122;2022-11-20T11:44:18;14.73;;;1.80;;
67597;SDS011;62026;39.230;9.122;2022-11-20T11:47:11;7.72;;;1.85;;
67597;SDS011;62026;39.230;9.122;2022-11-20T11:56:03;7.13;;;1.90;;
67597;SDS011;62026;39.230;9.122;2022-11-20T12:01:24;11.13;;;1.85;;
67597;SDS011;62026;39.230;9.122;2022-11-20T12:07:47;8.95;;;1.73;;
67597;SDS011;62026;39.230;9.122;2022-11-20T12:11:11;6.63;;;1.98;;
67597;SDS011;62026;39.230;9.122;2022-11-20T12:13:57;5.93;;;1.48;;
67597;SDS011;62026;39.230;9.122;2022-11-20T12:16:30;12.48;;;2.20;;
67597;SDS011;62026;39.230;9.122;2022-11-20T12:19:02;8.70;;;1.98;;
67597;SDS011;62026;39.230;9.122;2022-11-20T12:30:10;10.43;;;2.30;;
67597;SDS011;62026;39.230;9.122;2022-11-20T13:00:17;9.70;;;1.77;;
67597;SDS011;62026;39.230;9.122;2022-11-20T13:08:36;7.65;;;1.73;;
67597;SDS011;62026;39.230;9.122;2022-11-20T13:11:14;10.15;;;1.70;;
67597;SDS011;62026;39.230;9.122;2022-11-20T13:19:27;6.43;;;1.80;;
67597;SDS011;62026;39.230;9.122;2022-11-20T13:21:54;10.05;;;2.03;;
67597;SDS011;62026;39.230;9.122;2022-11-20T13:29:36;12.45;;;2.28;;
67597;SDS011;62026;39.230;9.122;2022-11-20T13:32:04;13.80;;;1.90;;
67597;SDS011;62026;39.230;9.122;2022-11-20T13:34:39;11.55;;;2.63;;
67597;SDS011;62026;39.230;9.122;2022-11-20T13:37:31;10.55;;;1.95;;
67597;SDS011;62026;39.230;9.122;2022-11-20T13:42:38;9.93;;;1.98;;
67597;SDS011;62026;39.230;9.122;2022-11-20T13:45:11;5.15;;;1.42;;
67597;SDS011;62026;39.230;9.122;2022-11-20T13:47:50;10.15;;;1.80;;
67597;SDS011;62026;39.230;9.122;2022-11-20T13:50:18;7.50;;;1.48;;
67597;SDS011;62026;39.230;9.122;2022-11-20T14:02:02;10.23;;;1.70;;
67597;SDS011;62026;39.230;9.122;2022-11-20T14:04:35;9.05;;;2.50;;
67597;SDS011;62026;39.230;9.122;2022-11-20T14:07:06;7.80;;;1.80;;
67597;SDS011;62026;39.230;9.122;2022-11-20T14:09:34;7.10;;;1.50;;
67597;SDS011;62026;39.230;9.122;2022-11-20T14:12:01;8.23;;;1.77;;
67597;SDS011;62026;39.230;9.122;2022-11-20T14:14:29;10.15;;;2.00;;
67597;SDS011;62026;39.230;9.122;2022-11-20T14:17:20;7.10;;;2.08;;
67597;SDS011;62026;39.230;9.122;2022-11-20T14:19:59;5.78;;;1.70;;
67597;SDS011;62026;39.230;9.122;2022-11-20T14:22:51;6.72;;;1.35;;
67597;SDS011;62026;39.230;9.122;2022-11-20T14:25:20;10.23;;;1.70;;
67597;SDS011;62026;39.230;9.122;2022-11-20T14:27:56;7.43;;;2.05;;
67597;SDS011;62026;39.230;9.122;2022-11-20T14:30:25;8.85;;;1.70;;
67597;SDS011;62026;39.230;9.122;2022-11-20T14:33:09;7.80;;;1.63;;
67597;SDS011;62026;39.230;9.122;2022-11-20T14:35:42;6.85;;;1.08;;
67597;SDS011;62026;39.230;9.122;2022-11-20T14:38:16;9.52;;;1.58;;
67597;SDS011;62026;39.230;9.122;2022-11-20T14:40:47;5.47;;;1.25;;
67597;SDS011;62026;39.230;9.122;2022-11-20T14:43:26;4.50;;;1.08;;
67597;SDS011;62026;39.230;9.122;2022-11-20T14:48:31;4.75;;;1.00;;
67597;SDS011;62026;39.230;9.122;2022-11-20T14:51:04;6.53;;;0.90;;
67597;SDS011;62026;39.230;9.122;2022-11-20T14:53:30;7.50;;;1.08;;
67597;SDS011;62026;39.230;9.122;2022-11-20T14:56:00;5.70;;;1.20;;
67597;SDS011;62026;39.230;9.122;2022-11-20T14:58:28;4.28;;;1.52;;
67597;SDS011;62026;39.230;9.122;2022-11-20T15:01:05;3.95;;;1.30;;
67597;SDS011;62026;39.230;9.122;2022-11-20T15:03:37;3.50;;;1.27;;
67597;SDS011;62026;39.230;9.122;2022-11-20T15:06:06;8.98;;;1.25;;
67597;SDS011;62026;39.230;9.122;2022-11-20T15:08:36;7.70;;;1.75;;
67597;SDS011;62026;39.230;9.122;2022-11-20T15:11:03;4.18;;;1.00;;
67597;SDS011;62026;39.230;9.122;2022-11-20T15:13:43;6.40;;;1.10;;
67597;SDS011;62026;39.230;9.122;2022-11-20T15:16:17;3.67;;;1.10;;
67597;SDS011;62026;39.230;9.122;2022-11-20T15:18:46;6.32;;;1.10;;
67597;SDS011;62026;39.230;9.122;2022-11-20T15:21:13;7.20;;;1.33;;
67597;SDS011;62026;39.230;9.122;2022-11-20T15:23:44;3.58;;;1.10;;
67597;SDS011;62026;39.230;9.122;2022-11-20T15:26:11;3.72;;;0.82;;
67597;SDS011;62026;39.230;9.122;2022-11-20T15:28:43;7.13;;;1.50;;
67597;SDS011;62026;39.230;9.122;2022-11-20T15:31:14;6.80;;;1.40;;
67597;SDS011;62026;39.230;9.122;2022-11-20T15:33:46;9.32;;;1.25;;
67597;SDS011;62026;39.230;9.122;2022-11-20T15:36:13;6.80;;;1.20;;
67597;SDS011;62026;39.230;9.122;2022-11-20T15:38:40;4.07;;;1.00;;
67597;SDS011;62026;39.230;9.122;2022-11-20T15:41:06;5.05;;;1.20;;
67597;SDS011;62026;39.230;9.122;2022-11-20T15:43:33;5.50;;;1.40;;
67597;SDS011;62026;39.230;9.122;2022-11-20T15:46:00;6.32;;;1.48;;
67597;SDS011;62026;39.230;9.122;2022-11-20T15:48:34;7.10;;;1.38;;
67597;SDS011;62026;39.230;9.122;2022-11-20T15:53:40;10.65;;;1.90;;
67597;SDS011;62026;39.230;9.122;2022-11-20T15:56:13;6.07;;;1.77;;
67597;SDS011;62026;39.230;9.122;2022-11-20T15:58:40;5.57;;;1.60;;
67597;SDS011;62026;39.230;9.122;2022-11-20T16:01:13;8.18;;;1.80;;
67597;SDS011;62026;39.230;9.122;2022-11-20T16:03:42;6.57;;;1.73;;
67597;SDS011;62026;39.230;9.122;2022-11-20T16:06:08;6.00;;;1.98;;
67597;SDS011;62026;39.230;9.122;2022-11-20T16:08:34;9.63;;;1.83;;
67597;SDS011;62026;39.230;9.122;2022-11-20T16:11:01;8.60;;;1.70;;
67597;SDS011;62026;39.230;9.122;2022-11-20T16:13:27;9.50;;;2.03;;
67597;SDS011;62026;39.230;9.122;2022-11-20T16:16:13;11.05;;;1.50;;
67597;SDS011;62026;39.230;9.122;2022-11-20T16:18:50;10.57;;;1.73;;
67597;SDS011;62026;39.230;9.122;2022-11-20T16:21:17;10.10;;;1.88;;
67597;SDS011;62026;39.230;9.122;2022-11-20T16:23:43;7.13;;;1.83;;
67597;SDS011;62026;39.230;9.122;2022-11-20T16:26:10;9.82;;;2.17;;
67597;SDS011;62026;39.230;9.122;2022-11-20T16:28:38;9.15;;;1.80;;
67597;SDS011;62026;39.230;9.122;2022-11-20T16:31:11;7.90;;;1.52;;
67597;SDS011;62026;39.230;9.122;2022-11-20T16:33:40;13.30;;;2.20;;
67597;SDS011;62026;39.230;9.122;2022-11-20T16:36:13;7.47;;;1.55;;
67597;SDS011;62026;39.230;9.122;2022-11-20T16:38:40;10.68;;;2.03;;
67597;SDS011;62026;39.230;9.122;2022-11-20T16:41:07;10.52;;;1.80;;
67597;SDS011;62026;39.230;9.122;2022-11-20T16:43:49;8.43;;;1.48;;
67597;SDS011;62026;39.230;9.122;2022-11-20T16:46:19;11.45;;;2.00;;
67597;SDS011;62026;39.230;9.122;2022-11-20T16:48:51;10.18;;;1.60;;
67597;SDS011;62026;39.230;9.122;2022-11-20T16:51:26;7.10;;;1.52;;
67597;SDS011;62026;39.230;9.122;2022-11-20T16:53:55;10.85;;;1.60;;
67597;SDS011;62026;39.230;9.122;2022-11-20T16:56:28;13.57;;;1.92;;
67597;SDS011;62026;39.230;9.122;2022-11-20T16:58:55;12.35;;;3.13;;
67597;SDS011;62026;39.230;9.122;2022-11-20T17:01:24;14.73;;;2.40;;
67597;SDS011;62026;39.230;9.122;2022-11-20T17:04:14;9.43;;;2.70;;
67597;SDS011;62026;39.230;9.122;2022-11-20T17:06:40;11.48;;;2.30;;
67597;SDS011;62026;39.230;9.122;2022-11-20T17:09:08;12.48;;;2.63;;
67597;SDS011;62026;39.230;9.122;2022-11-20T17:11:35;9.15;;;1.98;;
67597;SDS011;62026;39.230;9.122;2022-11-20T17:14:02;14.13;;;2.30;;
67597;SDS011;62026;39.230;9.122;2022-11-20T17:16:29;9.80;;;1.85;;
67597;SDS011;62026;39.230;9.122;2022-11-20T17:18:56;8.93;;;2.20;;
67597;SDS011;62026;39.230;9.122;2022-11-20T17:21:23;6.30;;;1.70;;
67597;SDS011;62026;39.230;9.122;2022-11-20T17:23:50;9.63;;;2.10;;
67597;SDS011;62026;39.230;9.122;2022-11-20T17:26:18;7.68;;;1.77;;
67597;SDS011;62026;39.230;9.122;2022-11-20T17:31:26;6.25;;;1.48;;
67597;SDS011;62026;39.230;9.122;2022-11-20T17:33:53;7.28;;;1.63;;